Terminal Aerodrome Forecast
Issued by NWS

Home | Current Version | Previous Version | Text Only | Print | Product List | Glossary On
Versions: 1 2 3 4 5 6 7 8 9 10 11 12 13 14 15 16 17 18 19 20 21 22 23 24
000
FTAK31 PAFA 172342
TAFASC
TAF
PASC 172342Z 1800/1824 34006KT 4SM BR OVC004
     FM180300 34008KT 2SM -SN BR OVC003
     FM180600 04008KT 4SM BR FEW003 OVC010
     FM181000 06008KT 1SM BR OVC004
     FM181700 08013KT 4SM BR OVC010=

USA.gov is the U.S. government's official web portal to all federal, state and local government web resources and services.